sensor_id;sensor_type;location;lat;lon;timestamp;temperature;humidity
6054;DHT22;3055;50.886;14.814;2023-03-01T00:00:04;-3.60;99.90
6054;DHT22;3055;50.886;14.814;2023-03-01T00:02:32;-3.60;99.90
6054;DHT22;3055;50.886;14.814;2023-03-01T00:05:01;-3.50;99.90
6054;DHT22;3055;50.886;14.814;2023-03-01T00:07:28;-3.60;99.90
6054;DHT22;3055;50.886;14.814;2023-03-01T00:09:55;-3.70;99.90
6054;DHT22;3055;50.886;14.814;2023-03-01T00:12:22;-3.70;99.90
6054;DHT22;3055;50.886;14.814;2023-03-01T00:14:49;-3.80;99.90
6054;DHT22;3055;50.886;14.814;2023-03-01T00:17:16;-3.80;99.90
6054;DHT22;3055;50.886;14.814;2023-03-01T00:19:43;-3.90;99.90
6054;DHT22;3055;50.886;14.814;2023-03-01T00:22:12;-4.00;99.90
6054;DHT22;3055;50.886;14.814;2023-03-01T00:24:39;-4.00;99.90
6054;DHT22;3055;50.886;14.814;2023-03-01T00:27:06;-4.10;99.90
6054;DHT22;3055;50.886;14.814;2023-03-01T00:29:34;-4.10;99.90
6054;DHT22;3055;50.886;14.814;2023-03-01T00:32:01;-4.20;99.90
6054;DHT22;3055;50.886;14.814;2023-03-01T00:34:28;-4.20;99.90
6054;DHT22;3055;50.886;14.814;2023-03-01T00:36:55;-4.30;99.90
6054;DHT22;3055;50.886;14.814;2023-03-01T00:39:32;-4.30;99.90
6054;DHT22;3055;50.886;14.814;2023-03-01T00:41:59;-4.30;99.90
6054;DHT22;3055;50.886;14.814;2023-03-01T00:44:26;-4.30;99.90
6054;DHT22;3055;50.886;14.814;2023-03-01T00:46:54;-4.40;99.90
6054;DHT22;3055;50.886;14.814;2023-03-01T00:49:21;-4.30;99.90
6054;DHT22;3055;50.886;14.814;2023-03-01T00:51:49;-4.30;99.90
6054;DHT22;3055;50.886;14.814;2023-03-01T00:54:17;-4.30;99.90
6054;DHT22;3055;50.886;14.814;2023-03-01T00:56:45;-4.20;99.90
6054;DHT22;3055;50.886;14.814;2023-03-01T00:59:13;-4.30;99.90
6054;DHT22;3055;50.886;14.814;2023-03-01T01:01:40;-4.30;99.90
6054;DHT22;3055;50.886;14.814;2023-03-01T01:04:08;-4.30;99.90
6054;DHT22;3055;50.886;14.814;2023-03-01T01:06:38;-4.30;99.90
6054;DHT22;3055;50.886;14.814;2023-03-01T01:09:06;-4.40;99.90
6054;DHT22;3055;50.886;14.814;2023-03-01T01:11:33;-4.40;99.90
6054;DHT22;3055;50.886;14.814;2023-03-01T01:14:03;-4.40;99.90
6054;DHT22;3055;50.886;14.814;2023-03-01T01:16:30;-4.40;99.90
6054;DHT22;3055;50.886;14.814;2023-03-01T01:18:57;-4.50;99.90
6054;DHT22;3055;50.886;14.814;2023-03-01T01:21:25;-4.40;99.90
6054;DHT22;3055;50.886;14.814;2023-03-01T01:23:53;-4.40;99.90
6054;DHT22;3055;50.886;14.814;2023-03-01T01:26:22;-4.50;99.90
6054;DHT22;3055;50.886;14.814;2023-03-01T01:28:50;-4.40;99.90
6054;DHT22;3055;50.886;14.814;2023-03-01T01:31:19;-4.40;99.90
6054;DHT22;3055;50.886;14.814;2023-03-01T01:33:49;-4.40;99.90
6054;DHT22;3055;50.886;14.814;2023-03-01T01:36:17;-4.40;99.90
6054;DHT22;3055;50.886;14.814;2023-03-01T01:38:44;-4.40;99.90
6054;DHT22;3055;50.886;14.814;2023-03-01T01:41:12;-4.40;99.90
6054;DHT22;3055;50.886;14.814;2023-03-01T01:43:41;-4.50;99.90
6054;DHT22;3055;50.886;14.814;2023-03-01T01:46:21;-4.50;99.90
6054;DHT22;3055;50.886;14.814;2023-03-01T01:48:54;-4.60;99.90
6054;DHT22;3055;50.886;14.814;2023-03-01T01:51:25;-4.60;99.90
6054;DHT22;3055;50.886;14.814;2023-03-01T01:53:57;-4.70;99.90
6054;DHT22;3055;50.886;14.814;2023-03-01T01:56:26;-4.70;99.90
6054;DHT22;3055;50.886;14.814;2023-03-01T01:58:55;-4.80;99.90
6054;DHT22;3055;50.886;14.814;2023-03-01T02:01:25;-4.90;99.90
6054;DHT22;3055;50.886;14.814;2023-03-01T02:03:52;-4.80;99.90
6054;DHT22;3055;50.886;14.814;2023-03-01T02:06:23;-4.80;99.90
6054;DHT22;3055;50.886;14.814;2023-03-01T02:08:57;-4.80;99.90
6054;DHT22;3055;50.886;14.814;2023-03-01T02:11:26;-4.90;99.90
6054;DHT22;3055;50.886;14.814;2023-03-01T02:13:54;-4.90;99.90
6054;DHT22;3055;50.886;14.814;2023-03-01T02:16:22;-4.90;99.90
6054;DHT22;3055;50.886;14.814;2023-03-01T02:18:50;-5.00;99.90
6054;DHT22;3055;50.886;14.814;2023-03-01T02:21:28;-5.00;99.90
6054;DHT22;3055;50.886;14.814;2023-03-01T02:23:58;-5.00;99.90
6054;DHT22;3055;50.886;14.814;2023-03-01T02:26:33;-5.00;99.90
6054;DHT22;3055;50.886;14.814;2023-03-01T02:29:04;-5.10;99.90
6054;DHT22;3055;50.886;14.814;2023-03-01T02:31:32;-5.20;99.90
6054;DHT22;3055;50.886;14.814;2023-03-01T02:34:09;-5.20;99.90
6054;DHT22;3055;50.886;14.814;2023-03-01T02:36:39;-5.00;99.90
6054;DHT22;3055;50.886;14.814;2023-03-01T02:39:10;-4.90;99.90
6054;DHT22;3055;50.886;14.814;2023-03-01T02:41:42;-4.90;99.90
6054;DHT22;3055;50.886;14.814;2023-03-01T02:44:11;-5.00;99.90
6054;DHT22;3055;50.886;14.814;2023-03-01T02:46:43;-5.10;99.90
6054;DHT22;3055;50.886;14.814;2023-03-01T02:49:20;-5.10;99.90
6054;DHT22;3055;50.886;14.814;2023-03-01T02:51:56;-5.10;99.90
6054;DHT22;3055;50.886;14.814;2023-03-01T02:54:31;-5.20;99.90
6054;DHT22;3055;50.886;14.814;2023-03-01T02:57:01;-5.20;99.90
6054;DHT22;3055;50.886;14.814;2023-03-01T02:59:32;-5.20;99.90
6054;DHT22;3055;50.886;14.814;2023-03-01T03:02:06;-5.20;99.90
6054;DHT22;3055;50.886;14.814;2023-03-01T03:04:33;-5.20;99.90
6054;DHT22;3055;50.886;14.814;2023-03-01T03:07:01;-5.20;99.90
6054;DHT22;3055;50.886;14.814;2023-03-01T03:09:28;-5.20;99.90
6054;DHT22;3055;50.886;14.814;2023-03-01T03:11:55;-5.10;99.90
6054;DHT22;3055;50.886;14.814;2023-03-01T03:14:22;-5.00;99.90
6054;DHT22;3055;50.886;14.814;2023-03-01T03:16:50;-5.00;99.90
6054;DHT22;3055;50.886;14.814;2023-03-01T03:19:18;-4.90;99.90
6054;DHT22;3055;50.886;14.814;2023-03-01T03:21:46;-5.10;99.90
6054;DHT22;3055;50.886;14.814;2023-03-01T03:24:13;-5.20;99.90
6054;DHT22;3055;50.886;14.814;2023-03-01T03:26:40;-5.20;99.90
6054;DHT22;3055;50.886;14.814;2023-03-01T03:29:07;-5.10;99.90
6054;DHT22;3055;50.886;14.814;2023-03-01T03:31:34;-5.10;99.90
6054;DHT22;3055;50.886;14.814;2023-03-01T03:34:02;-5.10;99.90
6054;DHT22;3055;50.886;14.814;2023-03-01T03:36:29;-5.10;99.90
6054;DHT22;3055;50.886;14.814;2023-03-01T03:38:56;-5.10;99.90
6054;DHT22;3055;50.886;14.814;2023-03-01T03:41:23;-5.10;99.90
6054;DHT22;3055;50.886;14.814;2023-03-01T03:43:50;-5.20;99.90
6054;DHT22;3055;50.886;14.814;2023-03-01T03:46:17;-5.20;99.90
6054;DHT22;3055;50.886;14.814;2023-03-01T03:48:45;-5.20;99.90
6054;DHT22;3055;50.886;14.814;2023-03-01T03:51:16;-5.20;99.90
6054;DHT22;3055;50.886;14.814;2023-03-01T03:53:44;-5.40;99.90
6054;DHT22;3055;50.886;14.814;2023-03-01T03:56:12;-5.40;99.90
6054;DHT22;3055;50.886;14.814;2023-03-01T03:58:39;-5.40;99.90
6054;DHT22;3055;50.886;14.814;2023-03-01T04:01:06;-5.40;99.90
6054;DHT22;3055;50.886;14.814;2023-03-01T04:03:34;-5.40;99.90
6054;DHT22;3055;50.886;14.814;2023-03-01T04:06:02;-5.20;99.90
6054;DHT22;3055;50.886;14.814;2023-03-01T04:08:31;-5.20;99.90
6054;DHT22;3055;50.886;14.814;2023-03-01T04:11:00;-5.20;99.90
6054;DHT22;3055;50.886;14.814;2023-03-01T04:13:48;-5.20;99.90
6054;DHT22;3055;50.886;14.814;2023-03-01T04:16:15;-5.40;99.90
6054;DHT22;3055;50.886;14.814;2023-03-01T04:18:42;-5.40;99.90
6054;DHT22;3055;50.886;14.814;2023-03-01T04:21:09;-5.40;99.90
6054;DHT22;3055;50.886;14.814;2023-03-01T04:23:38;-5.50;99.90
6054;DHT22;3055;50.886;14.814;2023-03-01T04:26:06;-5.60;99.90
6054;DHT22;3055;50.886;14.814;2023-03-01T04:28:35;-5.60;99.90
6054;DHT22;3055;50.886;14.814;2023-03-01T04:31:04;-5.60;99.90
6054;DHT22;3055;50.886;14.814;2023-03-01T04:33:38;-5.60;99.90
6054;DHT22;3055;50.886;14.814;2023-03-01T04:36:07;-5.70;99.90
6054;DHT22;3055;50.886;14.814;2023-03-01T04:38:36;-5.80;99.90
6054;DHT22;3055;50.886;14.814;2023-03-01T04:41:06;-5.80;99.90
6054;DHT22;3055;50.886;14.814;2023-03-01T04:43:34;-5.80;99.90
6054;DHT22;3055;50.886;14.814;2023-03-01T04:46:02;-5.80;99.90
6054;DHT22;3055;50.886;14.814;2023-03-01T04:48:30;-5.70;99.90
6054;DHT22;3055;50.886;14.814;2023-03-01T04:50:58;-5.60;99.90
6054;DHT22;3055;50.886;14.814;2023-03-01T04:53:25;-5.60;99.90
6054;DHT22;3055;50.886;14.814;2023-03-01T04:55:54;-5.60;99.90
6054;DHT22;3055;50.886;14.814;2023-03-01T04:58:22;-5.60;99.90
6054;DHT22;3055;50.886;14.814;2023-03-01T05:00:50;-5.60;99.90
6054;DHT22;3055;50.886;14.814;2023-03-01T05:03:17;-5.70;99.90
6054;DHT22;3055;50.886;14.814;2023-03-01T05:05:47;-5.70;99.90
6054;DHT22;3055;50.886;14.814;2023-03-01T05:08:15;-5.60;99.90
6054;DHT22;3055;50.886;14.814;2023-03-01T05:10:45;-5.50;99.90
6054;DHT22;3055;50.886;14.814;2023-03-01T05:13:13;-5.50;99.90
6054;DHT22;3055;50.886;14.814;2023-03-01T05:15:46;-5.60;99.90
6054;DHT22;3055;50.886;14.814;2023-03-01T05:18:13;-5.70;99.90
6054;DHT22;3055;50.886;14.814;2023-03-01T05:20:40;-5.60;99.90
6054;DHT22;3055;50.886;14.814;2023-03-01T05:23:07;-5.60;99.90
6054;DHT22;3055;50.886;14.814;2023-03-01T05:25:35;-5.70;99.90
6054;DHT22;3055;50.886;14.814;2023-03-01T05:28:06;-5.60;99.90
6054;DHT22;3055;50.886;14.814;2023-03-01T05:30:35;-5.80;99.90
6054;DHT22;3055;50.886;14.814;2023-03-01T05:33:03;-5.80;99.90
6054;DHT22;3055;50.886;14.814;2023-03-01T05:35:33;-5.90;99.90
6054;DHT22;3055;50.886;14.814;2023-03-01T05:38:00;-5.90;99.90
6054;DHT22;3055;50.886;14.814;2023-03-01T05:40:27;-5.80;99.90
6054;DHT22;3055;50.886;14.814;2023-03-01T05:42:56;-5.90;99.90
6054;DHT22;3055;50.886;14.814;2023-03-01T05:45:25;-5.90;99.90
6054;DHT22;3055;50.886;14.814;2023-03-01T05:47:53;-5.90;99.90
6054;DHT22;3055;50.886;14.814;2023-03-01T05:50:23;-5.90;99.90
6054;DHT22;3055;50.886;14.814;2023-03-01T05:52:51;-5.80;99.90
6054;DHT22;3055;50.886;14.814;2023-03-01T05:55:20;-5.80;99.90
6054;DHT22;3055;50.886;14.814;2023-03-01T05:57:48;-5.80;99.90
6054;DHT22;3055;50.886;14.814;2023-03-01T06:00:18;-5.90;99.90
6054;DHT22;3055;50.886;14.814;2023-03-01T06:02:45;-5.90;99.90
6054;DHT22;3055;50.886;14.814;2023-03-01T06:05:13;-5.80;99.90
6054;DHT22;3055;50.886;14.814;2023-03-01T06:07:42;-5.70;99.90
6054;DHT22;3055;50.886;14.814;2023-03-01T06:10:10;-5.70;99.90
6054;DHT22;3055;50.886;14.814;2023-03-01T06:12:39;-5.50;99.90
6054;DHT22;3055;50.886;14.814;2023-03-01T06:15:08;-5.50;99.90
6054;DHT22;3055;50.886;14.814;2023-03-01T06:17:37;-5.50;99.90
6054;DHT22;3055;50.886;14.814;2023-03-01T06:20:06;-5.60;99.90
6054;DHT22;3055;50.886;14.814;2023-03-01T06:22:33;-5.60;99.90
6054;DHT22;3055;50.886;14.814;2023-03-01T06:25:03;-5.70;99.90
6054;DHT22;3055;50.886;14.814;2023-03-01T06:27:30;-5.60;99.90
6054;DHT22;3055;50.886;14.814;2023-03-01T06:29:57;-5.50;99.90
6054;DHT22;3055;50.886;14.814;2023-03-01T06:32:24;-5.40;99.90
6054;DHT22;3055;50.886;14.814;2023-03-01T06:34:51;-5.20;99.90
6054;DHT22;3055;50.886;14.814;2023-03-01T06:37:18;-5.10;99.90
6054;DHT22;3055;50.886;14.814;2023-03-01T06:39:45;-5.10;99.90
6054;DHT22;3055;50.886;14.814;2023-03-01T06:42:13;-5.10;99.90
6054;DHT22;3055;50.886;14.814;2023-03-01T06:44:40;-5.00;99.90
6054;DHT22;3055;50.886;14.814;2023-03-01T06:47:07;-4.90;99.90
6054;DHT22;3055;50.886;14.814;2023-03-01T06:49:36;-4.80;99.90
6054;DHT22;3055;50.886;14.814;2023-03-01T06:52:03;-4.70;99.90
6054;DHT22;3055;50.886;14.814;2023-03-01T06:54:30;-4.60;99.90
6054;DHT22;3055;50.886;14.814;2023-03-01T06:56:57;-4.50;99.90
6054;DHT22;3055;50.886;14.814;2023-03-01T06:59:26;-4.30;99.90
6054;DHT22;3055;50.886;14.814;2023-03-01T07:01:53;-4.20;99.90
6054;DHT22;3055;50.886;14.814;2023-03-01T07:04:20;-4.20;99.90
6054;DHT22;3055;50.886;14.814;2023-03-01T07:06:47;-4.20;99.90
6054;DHT22;3055;50.886;14.814;2023-03-01T07:09:20;-4.10;99.90
6054;DHT22;3055;50.886;14.814;2023-03-01T07:11:48;-4.10;99.90
6054;DHT22;3055;50.886;14.814;2023-03-01T07:14:15;-4.00;99.90
6054;DHT22;3055;50.886;14.814;2023-03-01T07:16:44;-3.80;99.90
6054;DHT22;3055;50.886;14.814;2023-03-01T07:19:11;-3.70;99.90
6054;DHT22;3055;50.886;14.814;2023-03-01T07:21:38;-3.60;99.90
6054;DHT22;3055;50.886;14.814;2023-03-01T07:24:06;-3.50;99.90
6054;DHT22;3055;50.886;14.814;2023-03-01T07:26:34;-3.40;99.90
6054;DHT22;3055;50.886;14.814;2023-03-01T07:29:01;-3.20;99.90
6054;DHT22;3055;50.886;14.814;2023-03-01T07:31:28;-3.10;99.90
6054;DHT22;3055;50.886;14.814;2023-03-01T07:33:57;-3.10;99.90
6054;DHT22;3055;50.886;14.814;2023-03-01T07:36:24;-3.00;99.90
6054;DHT22;3055;50.886;14.814;2023-03-01T07:38:52;-2.90;99.90
6054;DHT22;3055;50.886;14.814;2023-03-01T07:41:21;-2.80;99.90
6054;DHT22;3055;50.886;14.814;2023-03-01T07:43:48;-2.70;99.90
6054;DHT22;3055;50.886;14.814;2023-03-01T07:46:15;-2.60;99.90
6054;DHT22;3055;50.886;14.814;2023-03-01T07:48:44;-2.50;99.90
6054;DHT22;3055;50.886;14.814;2023-03-01T07:51:12;-2.40;99.90
6054;DHT22;3055;50.886;14.814;2023-03-01T07:53:40;-2.30;99.90
6054;DHT22;3055;50.886;14.814;2023-03-01T07:56:09;-2.20;99.90
6054;DHT22;3055;50.886;14.814;2023-03-01T07:58:37;-2.00;99.90
6054;DHT22;3055;50.886;14.814;2023-03-01T08:01:06;-1.90;91.90
6054;DHT22;3055;50.886;14.814;2023-03-01T08:03:33;-1.90;70.10
6054;DHT22;3055;50.886;14.814;2023-03-01T08:06:01;-1.80;93.40
6054;DHT22;3055;50.886;14.814;2023-03-01T08:08:30;-1.70;99.90
6054;DHT22;3055;50.886;14.814;2023-03-01T08:10:57;-1.70;99.90
6054;DHT22;3055;50.886;14.814;2023-03-01T08:13:25;-1.50;99.90
6054;DHT22;3055;50.886;14.814;2023-03-01T08:15:52;-1.40;99.90
6054;DHT22;3055;50.886;14.814;2023-03-01T08:18:20;-1.10;43.80
6054;DHT22;3055;50.886;14.814;2023-03-01T08:20:47;-1.00;1.00
6054;DHT22;3055;50.886;14.814;2023-03-01T08:23:14;-0.90;1.00
6054;DHT22;3055;50.886;14.814;2023-03-01T08:25:43;-0.80;1.00
6054;DHT22;3055;50.886;14.814;2023-03-01T08:28:10;-0.80;1.00
6054;DHT22;3055;50.886;14.814;2023-03-01T08:30:37;-0.70;1.00
6054;DHT22;3055;50.886;14.814;2023-03-01T08:33:04;-0.60;50.20
6054;DHT22;3055;50.886;14.814;2023-03-01T08:35:31;-0.40;97.30
6054;DHT22;3055;50.886;14.814;2023-03-01T08:37:58;-0.30;99.90
6054;DHT22;3055;50.886;14.814;2023-03-01T08:40:25;-0.10;14.30
6054;DHT22;3055;50.886;14.814;2023-03-01T08:42:53;0.00;35.70
6054;DHT22;3055;50.886;14.814;2023-03-01T08:45:20;0.10;1.00
6054;DHT22;3055;50.886;14.814;2023-03-01T08:47:50;0.30;1.00
6054;DHT22;3055;50.886;14.814;2023-03-01T08:50:18;0.40;1.00
6054;DHT22;3055;50.886;14.814;2023-03-01T08:52:45;0.50;1.00
6054;DHT22;3055;50.886;14.814;2023-03-01T08:55:12;0.50;1.00
6054;DHT22;3055;50.886;14.814;2023-03-01T08:57:41;0.50;1.00
6054;DHT22;3055;50.886;14.814;2023-03-01T09:00:11;0.50;1.00
6054;DHT22;3055;50.886;14.814;2023-03-01T09:02:40;0.50;1.00
6054;DHT22;3055;50.886;14.814;2023-03-01T09:05:08;0.50;99.90
6054;DHT22;3055;50.886;14.814;2023-03-01T09:07:35;0.70;99.90
6054;DHT22;3055;50.886;14.814;2023-03-01T09:10:02;1.00;1.00
6054;DHT22;3055;50.886;14.814;2023-03-01T09:12:30;1.10;1.00
6054;DHT22;3055;50.886;14.814;2023-03-01T09:14:58;1.20;1.00
6054;DHT22;3055;50.886;14.814;2023-03-01T09:17:26;1.30;1.00
6054;DHT22;3055;50.886;14.814;2023-03-01T09:19:53;1.40;99.90
6054;DHT22;3055;50.886;14.814;2023-03-01T09:22:20;1.30;99.90
6054;DHT22;3055;50.886;14.814;2023-03-01T09:24:47;1.40;99.90
6054;DHT22;3055;50.886;14.814;2023-03-01T09:27:14;1.40;99.90
6054;DHT22;3055;50.886;14.814;2023-03-01T09:29:44;1.40;99.90
6054;DHT22;3055;50.886;14.814;2023-03-01T09:32:11;1.50;99.90
6054;DHT22;3055;50.886;14.814;2023-03-01T09:34:40;1.70;99.90
6054;DHT22;3055;50.886;14.814;2023-03-01T09:37:21;1.70;99.90
6054;DHT22;3055;50.886;14.814;2023-03-01T09:39:48;1.80;99.90
6054;DHT22;3055;50.886;14.814;2023-03-01T09:42:15;1.80;99.90
6054;DHT22;3055;50.886;14.814;2023-03-01T09:44:47;1.90;99.90
6054;DHT22;3055;50.886;14.814;2023-03-01T09:47:18;2.10;99.90
6054;DHT22;3055;50.886;14.814;2023-03-01T09:49:57;2.20;99.90
6054;DHT22;3055;50.886;14.814;2023-03-01T09:52:29;2.30;99.90
6054;DHT22;3055;50.886;14.814;2023-03-01T09:54:58;2.30;99.90
6054;DHT22;3055;50.886;14.814;2023-03-01T09:57:33;2.30;99.90
6054;DHT22;3055;50.886;14.814;2023-03-01T10:00:22;2.30;99.90
6054;DHT22;3055;50.886;14.814;2023-03-01T10:02:57;2.40;99.90
6054;DHT22;3055;50.886;14.814;2023-03-01T10:05:36;2.60;99.90
6054;DHT22;3055;50.886;14.814;2023-03-01T10:08:24;2.70;99.90
6054;DHT22;3055;50.886;14.814;2023-03-01T10:10:55;2.70;99.90
6054;DHT22;3055;50.886;14.814;2023-03-01T10:13:25;2.70;99.90
6054;DHT22;3055;50.886;14.814;2023-03-01T10:15:57;2.80;99.90
6054;DHT22;3055;50.886;14.814;2023-03-01T10:18:28;2.80;99.90
6054;DHT22;3055;50.886;14.814;2023-03-01T10:21:00;2.70;99.90
6054;DHT22;3055;50.886;14.814;2023-03-01T10:23:30;2.60;99.90
6054;DHT22;3055;50.886;14.814;2023-03-01T10:26:19;2.70;99.90
6054;DHT22;3055;50.886;14.814;2023-03-01T10:28:55;2.90;99.90
6054;DHT22;3055;50.886;14.814;2023-03-01T10:31:25;3.00;99.90
6054;DHT22;3055;50.886;14.814;2023-03-01T10:33:55;2.90;99.90
6054;DHT22;3055;50.886;14.814;2023-03-01T10:36:24;3.00;99.90
6054;DHT22;3055;50.886;14.814;2023-03-01T10:38:52;3.10;99.90
6054;DHT22;3055;50.886;14.814;2023-03-01T10:41:20;3.20;99.90
6054;DHT22;3055;50.886;14.814;2023-03-01T10:43:50;3.40;99.90
6054;DHT22;3055;50.886;14.814;2023-03-01T10:46:26;3.60;99.90
6054;DHT22;3055;50.886;14.814;2023-03-01T10:49:14;3.70;99.90
6054;DHT22;3055;50.886;14.814;2023-03-01T10:51:44;3.70;99.90
6054;DHT22;3055;50.886;14.814;2023-03-01T10:54:17;3.70;99.90
6054;DHT22;3055;50.886;14.814;2023-03-01T10:56:50;3.70;99.90
6054;DHT22;3055;50.886;14.814;2023-03-01T10:59:27;3.80;98.70
6054;DHT22;3055;50.886;14.814;2023-03-01T11:02:17;3.80;96.50
6054;DHT22;3055;50.886;14.814;2023-03-01T11:04:59;3.80;90.90
6054;DHT22;3055;50.886;14.814;2023-03-01T11:07:27;4.00;88.60
6054;DHT22;3055;50.886;14.814;2023-03-01T11:09:55;4.10;90.90
6054;DHT22;3055;50.886;14.814;2023-03-01T11:12:22;4.20;75.60
6054;DHT22;3055;50.886;14.814;2023-03-01T11:14:53;4.40;76.80
6054;DHT22;3055;50.886;14.814;2023-03-01T11:17:23;4.60;90.40
6054;DHT22;3055;50.886;14.814;2023-03-01T11:20:05;4.70;74.30
6054;DHT22;3055;50.886;14.814;2023-03-01T11:22:35;4.90;66.00
6054;DHT22;3055;50.886;14.814;2023-03-01T11:25:03;5.00;78.50
6054;DHT22;3055;50.886;14.814;2023-03-01T11:27:32;5.00;64.40
6054;DHT22;3055;50.886;14.814;2023-03-01T11:30:02;5.10;57.90
6054;DHT22;3055;50.886;14.814;2023-03-01T11:32:38;5.20;53.20
6054;DHT22;3055;50.886;14.814;2023-03-01T11:35:13;5.30;54.10
6054;DHT22;3055;50.886;14.814;2023-03-01T11:37:50;5.40;49.70
6054;DHT22;3055;50.886;14.814;2023-03-01T11:40:25;5.50;46.30
6054;DHT22;3055;50.886;14.814;2023-03-01T11:43:09;5.60;40.00
6054;DHT22;3055;50.886;14.814;2023-03-01T11:45:49;5.40;27.60
6054;DHT22;3055;50.886;14.814;2023-03-01T11:48:30;5.40;26.90
6054;DHT22;3055;50.886;14.814;2023-03-01T11:51:03;5.50;21.10
6054;DHT22;3055;50.886;14.814;2023-03-01T11:53:51;5.60;19.50
6054;DHT22;3055;50.886;14.814;2023-03-01T11:56:28;5.70;8.10
6054;DHT22;3055;50.886;14.814;2023-03-01T11:59:06;5.70;8.20
6054;DHT22;3055;50.886;14.814;2023-03-01T12:01:47;5.80;8.60
6054;DHT22;3055;50.886;14.814;2023-03-01T12:07:27;5.80;1.00
6054;DHT22;3055;50.886;14.814;2023-03-01T12:10:19;5.80;1.00
6054;DHT22;3055;50.886;14.814;2023-03-01T12:13:00;5.70;1.00
6054;DHT22;3055;50.886;14.814;2023-03-01T12:15:44;5.70;1.00
6054;DHT22;3055;50.886;14.814;2023-03-01T12:18:45;5.70;1.00
6054;DHT22;3055;50.886;14.814;2023-03-01T12:21:26;5.70;1.00
6054;DHT22;3055;50.886;14.814;2023-03-01T12:24:27;5.80;1.00
6054;DHT22;3055;50.886;14.814;2023-03-01T12:27:21;5.80;1.00
6054;DHT22;3055;50.886;14.814;2023-03-01T12:29:57;5.70;1.00
6054;DHT22;3055;50.886;14.814;2023-03-01T12:32:35;5.70;1.00
6054;DHT22;3055;50.886;14.814;2023-03-01T12:38:01;5.90;1.00
6054;DHT22;3055;50.886;14.814;2023-03-01T12:40:49;6.10;1.00
6054;DHT22;3055;50.886;14.814;2023-03-01T12:43:33;6.30;1.00
6054;DHT22;3055;50.886;14.814;2023-03-01T12:46:19;6.40;1.00
6054;DHT22;3055;50.886;14.814;2023-03-01T12:48:53;6.50;1.00
6054;DHT22;3055;50.886;14.814;2023-03-01T12:51:30;6.60;1.00
6054;DHT22;3055;50.886;14.814;2023-03-01T12:54:00;6.60;1.00
6054;DHT22;3055;50.886;14.814;2023-03-01T12:56:31;6.60;1.00
6054;DHT22;3055;50.886;14.814;2023-03-01T12:59:07;6.80;1.00
6054;DHT22;3055;50.886;14.814;2023-03-01T13:01:41;6.70;1.00
6054;DHT22;3055;50.886;14.814;2023-03-01T13:04:35;6.80;1.00
6054;DHT22;3055;50.886;14.814;2023-03-01T13:07:15;6.90;1.00
6054;DHT22;3055;50.886;14.814;2023-03-01T13:09:51;6.90;1.00
6054;DHT22;3055;50.886;14.814;2023-03-01T13:12:51;6.90;1.00
6054;DHT22;3055;50.886;14.814;2023-03-01T13:15:31;6.90;1.00
6054;DHT22;3055;50.886;14.814;2023-03-01T13:18:00;6.90;1.00
6054;DHT22;3055;50.886;14.814;2023-03-01T13:20:32;7.00;1.00
6054;DHT22;3055;50.886;14.814;2023-03-01T13:23:09;7.40;1.00
6054;DHT22;3055;50.886;14.814;2023-03-01T13:28:58;7.50;1.00
6054;DHT22;3055;50.886;14.814;2023-03-01T13:31:59;7.50;1.00
6054;DHT22;3055;50.886;14.814;2023-03-01T13:34:42;7.70;1.00
6054;DHT22;3055;50.886;14.814;2023-03-01T13:37:10;7.90;1.00
6054;DHT22;3055;50.886;14.814;2023-03-01T13:39:40;8.00;1.00
6054;DHT22;3055;50.886;14.814;2023-03-01T13:42:29;8.20;1.00
6054;DHT22;3055;50.886;14.814;2023-03-01T13:44:57;8.30;1.00
6054;DHT22;3055;50.886;14.814;2023-03-01T13:47:27;8.60;1.00
6054;DHT22;3055;50.886;14.814;2023-03-01T13:49:56;8.60;1.00
6054;DHT22;3055;50.886;14.814;2023-03-01T13:52:39;8.50;1.00
6054;DHT22;3055;50.886;14.814;2023-03-01T13:55:21;8.50;1.00
6054;DHT22;3055;50.886;14.814;2023-03-01T13:57:51;8.40;1.00
6054;DHT22;3055;50.886;14.814;2023-03-01T14:00:35;8.40;1.00
6054;DHT22;3055;50.886;14.814;2023-03-01T14:03:08;8.30;1.00
6054;DHT22;3055;50.886;14.814;2023-03-01T14:05:36;8.50;1.00
6054;DHT22;3055;50.886;14.814;2023-03-01T14:08:04;8.60;1.00
6054;DHT22;3055;50.886;14.814;2023-03-01T14:10:51;8.90;1.00
6054;DHT22;3055;50.886;14.814;2023-03-01T14:13:30;9.00;1.00
6054;DHT22;3055;50.886;14.814;2023-03-01T14:16:11;9.10;1.00
6054;DHT22;3055;50.886;14.814;2023-03-01T14:18:47;9.00;1.00
6054;DHT22;3055;50.886;14.814;2023-03-01T14:21:19;9.00;1.00
6054;DHT22;3055;50.886;14.814;2023-03-01T14:23:48;9.10;1.00
6054;DHT22;3055;50.886;14.814;2023-03-01T14:26:21;9.30;1.00
6054;DHT22;3055;50.886;14.814;2023-03-01T14:28:49;9.20;1.00
6054;DHT22;3055;50.886;14.814;2023-03-01T14:31:37;9.20;1.00
6054;DHT22;3055;50.886;14.814;2023-03-01T14:34:19;9.30;1.00
6054;DHT22;3055;50.886;14.814;2023-03-01T14:36:46;9.70;1.00
6054;DHT22;3055;50.886;14.814;2023-03-01T14:39:17;9.50;1.00
6054;DHT22;3055;50.886;14.814;2023-03-01T14:41:45;9.10;1.00
6054;DHT22;3055;50.886;14.814;2023-03-01T14:44:16;9.10;1.00
6054;DHT22;3055;50.886;14.814;2023-03-01T14:46:46;9.00;1.00
6054;DHT22;3055;50.886;14.814;2023-03-01T14:49:17;8.70;1.00
6054;DHT22;3055;50.886;14.814;2023-03-01T14:51:51;8.40;1.00
6054;DHT22;3055;50.886;14.814;2023-03-01T14:54:21;8.20;1.00
6054;DHT22;3055;50.886;14.814;2023-03-01T14:56:51;8.10;1.00
6054;DHT22;3055;50.886;14.814;2023-03-01T14:59:22;7.90;1.00
6054;DHT22;3055;50.886;14.814;2023-03-01T15:01:49;7.80;1.00
6054;DHT22;3055;50.886;14.814;2023-03-01T15:04:19;7.70;1.00
6054;DHT22;3055;50.886;14.814;2023-03-01T15:06:51;7.60;1.00
6054;DHT22;3055;50.886;14.814;2023-03-01T15:09:19;7.70;1.00
6054;DHT22;3055;50.886;14.814;2023-03-01T15:11:46;7.90;1.00
6054;DHT22;3055;50.886;14.814;2023-03-01T15:14:40;7.90;1.00
6054;DHT22;3055;50.886;14.814;2023-03-01T15:17:21;8.30;1.00
6054;DHT22;3055;50.886;14.814;2023-03-01T15:19:51;8.20;1.00
6054;DHT22;3055;50.886;14.814;2023-03-01T15:22:18;8.10;1.00
6054;DHT22;3055;50.886;14.814;2023-03-01T15:24:49;8.10;1.00
6054;DHT22;3055;50.886;14.814;2023-03-01T15:27:19;8.10;1.00
6054;DHT22;3055;50.886;14.814;2023-03-01T15:29:49;8.10;1.00
6054;DHT22;3055;50.886;14.814;2023-03-01T15:32:28;8.30;1.00
6054;DHT22;3055;50.886;14.814;2023-03-01T15:34:58;8.20;1.00
6054;DHT22;3055;50.886;14.814;2023-03-01T15:37:43;8.00;1.00
6054;DHT22;3055;50.886;14.814;2023-03-01T15:40:19;8.10;1.00
6054;DHT22;3055;50.886;14.814;2023-03-01T15:42:46;8.20;1.00
6054;DHT22;3055;50.886;14.814;2023-03-01T15:45:22;8.20;1.00
6054;DHT22;3055;50.886;14.814;2023-03-01T15:47:53;8.30;1.00
6054;DHT22;3055;50.886;14.814;2023-03-01T15:50:26;8.20;1.00
6054;DHT22;3055;50.886;14.814;2023-03-01T15:52:55;8.10;1.00
6054;DHT22;3055;50.886;14.814;2023-03-01T15:55:24;8.10;1.00
6054;DHT22;3055;50.886;14.814;2023-03-01T15:57:59;8.30;1.00
6054;DHT22;3055;50.886;14.814;2023-03-01T16:00:27;8.30;1.00
6054;DHT22;3055;50.886;14.814;2023-03-01T16:02:55;7.90;1.00
6054;DHT22;3055;50.886;14.814;2023-03-01T16:05:26;7.10;1.00
6054;DHT22;3055;50.886;14.814;2023-03-01T16:07:54;6.30;1.00
6054;DHT22;3055;50.886;14.814;2023-03-01T16:10:22;5.90;1.00
6054;DHT22;3055;50.886;14.814;2023-03-01T16:12:49;5.50;1.00
6054;DHT22;3055;50.886;14.814;2023-03-01T16:15:19;5.30;1.00
6054;DHT22;3055;50.886;14.814;2023-03-01T16:17:47;5.10;1.00
6054;DHT22;3055;50.886;14.814;2023-03-01T16:20:14;4.80;1.00
6054;DHT22;3055;50.886;14.814;2023-03-01T16:22:44;4.70;1.00
6054;DHT22;3055;50.886;14.814;2023-03-01T16:25:12;4.50;1.00
6054;DHT22;3055;50.886;14.814;2023-03-01T16:27:42;4.40;1.00
6054;DHT22;3055;50.886;14.814;2023-03-01T16:30:11;4.20;1.00